createdAt,value
2018-08-16T00:00:19.602Z,100951.06
2018-08-16T00:02:43.732Z,100954.55
2018-08-16T00:05:07.644Z,100960.94
2018-08-16T00:07:31.505Z,100962.35
2018-08-16T00:09:55.456Z,100963.64
2018-08-16T00:12:19.326Z,100963.09
2018-08-16T00:14:43.156Z,100963.64
2018-08-16T00:17:07.592Z,100956.52
2018-08-16T00:19:31.452Z,100965.05
2018-08-16T00:21:55.318Z,100958.70
2018-08-16T00:24:19.222Z,100955.89
2018-08-16T00:26:43.066Z,100955.45
2018-08-16T00:29:06.895Z,100964.14
2018-08-16T00:31:30.784Z,100957.38
2018-08-16T00:33:54.660Z,100956.87
2018-08-16T00:36:18.506Z,100961.38
2018-08-16T00:38:42.607Z,100952.56
2018-08-16T00:41:06.492Z,100956.03
2018-08-16T00:43:30.376Z,100954.44
2018-08-16T00:45:54.278Z,100951.33
2018-08-16T00:48:18.249Z,100950.48
2018-08-16T00:50:42.091Z,100951.18
2018-08-16T00:53:06.508Z,100950.36
2018-08-16T00:55:30.347Z,100950.63
2018-08-16T00:57:54.194Z,100951.33
2018-08-16T01:00:18.282Z,100955.53
2018-08-16T01:02:42.130Z,100950.62
2018-08-16T01:05:06.117Z,100941.99
2018-08-16T01:07:30.016Z,100945.84
2018-08-16T01:09:53.907Z,100944.70
2018-08-16T01:12:17.993Z,100943.26
2018-08-16T01:14:41.875Z,100948.05
2018-08-16T01:17:05.767Z,100946.73
2018-08-16T01:19:29.622Z,100939.16
2018-08-16T01:21:53.677Z,100941.50
2018-08-16T01:24:17.525Z,100943.42
2018-08-16T01:26:41.385Z,100945.02
2018-08-16T01:29:05.352Z,100953.54
2018-08-16T01:31:29.195Z,100943.67
2018-08-16T01:33:53.086Z,100943.58
2018-08-16T01:36:16.960Z,100936.57
2018-08-16T01:38:40.840Z,100940.36
2018-08-16T01:41:04.682Z,100935.97
2018-08-16T01:43:28.611Z,100935.88
2018-08-16T01:45:52.451Z,100942.33
2018-08-16T01:48:16.315Z,100941.20
2018-08-16T01:50:40.224Z,100940.12
2018-08-16T01:53:04.096Z,100943.17
2018-08-16T01:55:28.225Z,100941.67
2018-08-16T01:57:52.126Z,100936.97
2018-08-16T02:00:15.990Z,100935.09
2018-08-16T02:02:39.984Z,100933.37
2018-08-16T02:05:05.086Z,100932.39
2018-08-16T02:07:28.953Z,100926.86
2018-08-16T02:09:52.856Z,100924.36
2018-08-16T02:12:16.727Z,100924.92
2018-08-16T02:14:40.580Z,100933.28
2018-08-16T02:17:04.468Z,100922.02
2018-08-16T02:19:28.342Z,100928.09
2018-08-16T02:21:52.230Z,100931.53
2018-08-16T02:24:16.137Z,100930.26
2018-08-16T02:26:40.020Z,100934.92
2018-08-16T02:29:03.915Z,100932.94
2018-08-16T02:31:27.800Z,100936.77
2018-08-16T02:33:51.818Z,100934.48
2018-08-16T02:36:15.824Z,100928.12
2018-08-16T02:38:39.724Z,100937.20
2018-08-16T02:41:03.588Z,100927.55
2018-08-16T02:43:27.463Z,100933.45
2018-08-16T02:45:51.442Z,100932.19
2018-08-16T02:48:15.303Z,100940.31
2018-08-16T02:50:39.162Z,100937.30
2018-08-16T02:53:03.086Z,100938.83
2018-08-16T02:55:26.949Z,100933.26
2018-08-16T02:57:51.584Z,100932.07
2018-08-16T03:00:15.499Z,100931.47
2018-08-16T03:02:39.453Z,100931.45
2018-08-16T03:05:03.336Z,100929.56
2018-08-16T03:07:27.227Z,100930.59
2018-08-16T03:09:51.112Z,100925.89
2018-08-16T03:12:14.974Z,100924.55
2018-08-16T03:14:39.539Z,100923.65
2018-08-16T03:17:03.410Z,100922.34
2018-08-16T03:19:27.260Z,100918.69
2018-08-16T03:21:51.209Z,100922.91
2018-08-16T03:24:15.071Z,100915.98
2018-08-16T03:26:38.938Z,100915.13
2018-08-16T03:29:02.868Z,100917.71
2018-08-16T03:31:26.718Z,100914.94
2018-08-16T03:33:50.579Z,100907.13
2018-08-16T03:36:14.487Z,100912.45
2018-08-16T03:38:38.340Z,100908.98
2018-08-16T03:41:02.238Z,100909.52
2018-08-16T03:43:26.096Z,100910.09
2018-08-16T03:45:49.986Z,100909.94
2018-08-16T03:48:13.950Z,100910.97
2018-08-16T03:50:37.708Z,100914.62
2018-08-16T03:53:01.563Z,100914.52
2018-08-16T03:55:25.613Z,100913.34
2018-08-16T03:57:49.503Z,100911.31
2018-08-16T04:00:13.378Z,100906.94
2018-08-16T04:02:37.364Z,100907.53
2018-08-16T04:05:01.201Z,100905.13
2018-08-16T04:07:25.430Z,100897.95
2018-08-16T04:09:49.289Z,100899.67
2018-08-16T04:12:13.141Z,100901.28
2018-08-16T04:14:37.031Z,100904.87
2018-08-16T04:17:00.954Z,100907.69
2018-08-16T04:19:24.800Z,100906.45
2018-08-16T04:21:48.691Z,100904.39
2018-08-16T04:24:12.573Z,100909.03
2018-08-16T04:26:36.471Z,100905.14
2018-08-16T04:29:00.414Z,100904.35
2018-08-16T04:31:24.248Z,100902.33
2018-08-16T04:33:48.106Z,100903.38
2018-08-16T04:36:12.001Z,100897.73
2018-08-16T04:38:35.832Z,100902.32
2018-08-16T04:40:59.901Z,100901.21
2018-08-16T04:43:23.767Z,100896.25
2018-08-16T04:45:47.609Z,100901.41
2018-08-16T04:48:11.498Z,100899.22
2018-08-16T04:50:35.339Z,100902.73
2018-08-16T04:52:59.253Z,100900.30
2018-08-16T04:55:23.149Z,100893.60
2018-08-16T04:57:46.988Z,100896.75
2018-08-16T05:00:12.387Z,100899.64
2018-08-16T05:02:36.352Z,100901.00
2018-08-16T05:05:00.221Z,100897.37
2018-08-16T05:07:24.118Z,100893.36
2018-08-16T05:09:47.995Z,100892.62
2018-08-16T05:12:11.883Z,100891.33
2018-08-16T05:14:35.737Z,100897.23
2018-08-16T05:16:59.638Z,100899.45
2018-08-16T05:19:23.465Z,100904.46
2018-08-16T05:21:47.328Z,100904.35
2018-08-16T05:24:11.181Z,100897.53
2018-08-16T05:26:35.143Z,100897.69
2018-08-16T05:28:58.991Z,100898.84
2018-08-16T05:31:23.000Z,100897.02
2018-08-16T05:33:46.884Z,100897.77
2018-08-16T05:36:10.806Z,100905.19
2018-08-16T05:38:34.911Z,100907.55
2018-08-16T05:40:58.787Z,100897.83
2018-08-16T05:43:22.675Z,100900.18
2018-08-16T05:45:46.852Z,100897.26
2018-08-16T05:48:10.749Z,100903.17
2018-08-16T05:50:34.615Z,100892.21
2018-08-16T05:52:58.522Z,100892.47
2018-08-16T05:55:22.411Z,100887.93
2018-08-16T05:57:46.262Z,100889.36
2018-08-16T06:00:12.458Z,100892.27
2018-08-16T06:02:36.311Z,100893.76
2018-08-16T06:05:00.206Z,100895.17
2018-08-16T06:07:24.095Z,100893.70
2018-08-16T06:09:47.944Z,100896.17
2018-08-16T06:12:11.827Z,100896.88
2018-08-16T06:14:35.681Z,100891.20
2018-08-16T06:16:59.555Z,100886.67
2018-08-16T06:19:23.488Z,100888.50
2018-08-16T06:21:47.371Z,100885.30
2018-08-16T06:24:11.340Z,100883.06
2018-08-16T06:26:35.208Z,100881.66
2018-08-16T06:28:59.108Z,100881.80
2018-08-16T06:31:23.120Z,100876.52
2018-08-16T06:33:46.994Z,100872.95
2018-08-16T06:36:10.883Z,100870.75
2018-08-16T06:38:34.726Z,100863.30
2018-08-16T06:40:58.572Z,100868.34
2018-08-16T06:43:22.490Z,100863.16
2018-08-16T06:45:46.386Z,100854.69
2018-08-16T06:48:10.263Z,100858.17
2018-08-16T06:50:34.148Z,100859.26
2018-08-16T06:52:58.028Z,100854.93
2018-08-16T06:55:21.875Z,100853.91
2018-08-16T06:57:45.729Z,100857.11
2018-08-16T07:00:09.799Z,100854.28
2018-08-16T07:02:33.707Z,100858.01
2018-08-16T07:04:57.565Z,100850.94
2018-08-16T07:07:21.438Z,100848.74
2018-08-16T07:09:45.343Z,100852.03
2018-08-16T07:12:09.436Z,100852.12
2018-08-16T07:14:33.451Z,100849.33
2018-08-16T07:16:57.364Z,100851.86
2018-08-16T07:19:21.222Z,100845.45
2018-08-16T07:21:45.099Z,100844.68
2018-08-16T07:24:09.147Z,100838.19
2018-08-16T07:26:32.996Z,100844.09
2018-08-16T07:28:56.857Z,100840.17
2018-08-16T07:31:20.758Z,100837.88
2018-08-16T07:33:44.660Z,100831.45
2018-08-16T07:36:08.535Z,100835.48
2018-08-16T07:38:32.636Z,100841.05
2018-08-16T07:40:56.471Z,100827.11
2018-08-16T07:43:20.349Z,100832.41
2018-08-16T07:45:44.332Z,100833.55
2018-08-16T07:48:08.114Z,100831.11
2018-08-16T07:50:31.966Z,100833.94
2018-08-16T07:52:55.870Z,100826.77
2018-08-16T07:55:19.734Z,100826.55
2018-08-16T07:57:43.579Z,100820.63
2018-08-16T08:00:11.430Z,100831.01
2018-08-16T08:02:35.303Z,100827.08
2018-08-16T08:04:59.168Z,100833.11
2018-08-16T08:07:23.084Z,100822.64
2018-08-16T08:09:46.969Z,100827.48
2018-08-16T08:12:10.821Z,100827.22
2018-08-16T08:14:34.723Z,100833.65
2018-08-16T08:16:58.639Z,100830.82
2018-08-16T08:19:22.514Z,100829.79
2018-08-16T08:21:46.440Z,100828.48
2018-08-16T08:24:10.300Z,100829.79
2018-08-16T08:26:34.180Z,100834.72
2018-08-16T08:28:58.088Z,100833.41
2018-08-16T08:31:21.955Z,100829.54
2018-08-16T08:33:45.829Z,100826.50
2018-08-16T08:36:21.120Z,100823.10
2018-08-16T08:38:45.011Z,100826.36
2018-08-16T08:41:08.918Z,100821.14
2018-08-16T08:43:44.037Z,100814.77
2018-08-16T08:46:07.939Z,100833.89
2018-08-16T08:48:31.868Z,100817.16
2018-08-16T08:50:55.740Z,100814.75
2018-08-16T08:54:44.322Z,100813.98
2018-08-16T08:57:19.589Z,100807.59
2018-08-16T08:59:43.486Z,100803.94
2018-08-16T09:02:07.728Z,100803.39
2018-08-16T09:04:31.606Z,100797.54
2018-08-16T09:06:55.565Z,100795.80
2018-08-16T09:09:19.359Z,100792.95
2018-08-16T09:11:54.469Z,100793.04
2018-08-16T09:14:29.582Z,100790.53
2018-08-16T09:16:53.427Z,100787.30
2018-08-16T09:19:17.342Z,100786.23
2018-08-16T09:21:41.272Z,100784.59
2018-08-16T09:24:05.265Z,100785.80
2018-08-16T09:26:34.482Z,100774.50
2018-08-16T09:28:58.633Z,100779.23
2018-08-16T09:31:33.786Z,100770.51
2018-08-16T09:34:21.782Z,100775.06
2018-08-16T09:36:45.692Z,100768.47
2018-08-16T09:39:09.866Z,100772.87
2018-08-16T09:41:33.743Z,100764.96
2018-08-16T09:43:57.635Z,100764.19
2018-08-16T09:46:46.937Z,100759.98
2018-08-16T09:49:10.963Z,100761.05
2018-08-16T09:51:34.905Z,100766.78
2018-08-16T09:53:58.728Z,100759.50
2018-08-16T09:56:22.609Z,100771.21
2018-08-16T09:58:46.460Z,100757.17
2018-08-16T10:01:11.351Z,100745.23
2018-08-16T10:03:35.211Z,100747.33
2018-08-16T10:05:59.084Z,100734.89
2018-08-16T10:08:22.948Z,100751.74
2018-08-16T10:10:46.831Z,100729.91
2018-08-16T10:13:10.694Z,100735.51
2018-08-16T10:15:34.567Z,100729.59
2018-08-16T10:17:58.483Z,100736.66
2018-08-16T10:20:22.368Z,100726.42
2018-08-16T10:22:46.220Z,100720.09
2018-08-16T10:25:10.085Z,100717.67
2018-08-16T10:27:34.280Z,100724.33
2018-08-16T10:29:58.119Z,100716.91
2018-08-16T10:32:22.001Z,100720.39
2018-08-16T10:34:45.894Z,100717.34
2018-08-16T10:37:09.846Z,100715.80
2018-08-16T10:39:33.656Z,100715.80
2018-08-16T10:41:57.534Z,100728.08
2018-08-16T10:44:21.433Z,100709.32
2018-08-16T10:46:45.244Z,100709.46
2018-08-16T10:49:09.151Z,100713.32
2018-08-16T10:51:33.026Z,100701.09
2018-08-16T10:53:56.987Z,100708.36
2018-08-16T10:56:20.889Z,100707.41
2018-08-16T10:58:44.745Z,100701.24
2018-08-16T11:01:08.603Z,100700.17
2018-08-16T11:03:32.648Z,100705.93
2018-08-16T11:05:56.641Z,100707.33
2018-08-16T11:08:20.521Z,100705.11
2018-08-16T11:10:44.399Z,100693.58
2018-08-16T11:13:08.256Z,100691.45
2018-08-16T11:15:32.170Z,100682.95
2018-08-16T11:17:56.059Z,100682.21
2018-08-16T11:20:19.969Z,100678.19
2018-08-16T11:22:43.866Z,100668.09
2018-08-16T11:25:07.847Z,100671.63
2018-08-16T11:27:31.748Z,100687.63
2018-08-16T11:29:55.638Z,100672.99
2018-08-16T11:32:19.519Z,100673.91
2018-08-16T11:34:43.518Z,100672.27
2018-08-16T11:37:07.456Z,100671.30
2018-08-16T11:39:31.351Z,100667.69
2018-08-16T11:41:55.263Z,100671.64
2018-08-16T11:44:19.170Z,100670.83
2018-08-16T11:46:44.099Z,100666.30
2018-08-16T11:49:08.294Z,100665.24
2018-08-16T11:51:32.214Z,100652.50
2018-08-16T11:53:56.182Z,100650.95
2018-08-16T11:56:20.205Z,100639.70
2018-08-16T11:58:44.012Z,100651.42
2018-08-16T12:01:08.090Z,100640.83
2018-08-16T12:03:32.036Z,100655.35
2018-08-16T12:05:55.919Z,100649.02
2018-08-16T12:08:19.814Z,100641.97
2018-08-16T12:10:43.740Z,100636.48
2018-08-16T12:13:07.596Z,100638.00
2018-08-16T12:15:31.496Z,100631.46
2018-08-16T12:17:55.432Z,100621.25
2018-08-16T12:20:19.348Z,100628.41
2018-08-16T12:22:43.252Z,100627.40
2018-08-16T12:25:07.748Z,100625.66
2018-08-16T12:27:31.664Z,100616.97
2018-08-16T12:29:55.556Z,100621.36
2018-08-16T12:32:19.493Z,100617.77
2018-08-16T12:34:43.365Z,100611.14
2018-08-16T12:37:08.334Z,100605.34
2018-08-16T12:39:32.400Z,100600.63
2018-08-16T12:41:56.317Z,100601.45
2018-08-16T12:44:20.223Z,100596.61
2018-08-16T12:46:44.161Z,100589.87
2018-08-16T12:49:08.030Z,100594.87
2018-08-16T12:51:31.940Z,100589.22
2018-08-16T12:53:55.801Z,100584.52
2018-08-16T12:56:19.724Z,100584.16
2018-08-16T12:58:43.690Z,100578.01
2018-08-16T13:01:07.565Z,100579.27
2018-08-16T13:03:31.437Z,100574.55
2018-08-16T13:05:55.347Z,100570.30
2018-08-16T13:08:19.209Z,100562.48
2018-08-16T13:10:43.156Z,100562.56
2018-08-16T13:13:07.188Z,100561.27
2018-08-16T13:15:31.055Z,100558.40
2018-08-16T13:17:55.025Z,100565.50
2018-08-16T13:20:18.987Z,100559.18
2018-08-16T13:22:42.876Z,100561.83
2018-08-16T13:25:07.229Z,100556.11
2018-08-16T13:27:31.124Z,100544.70
2018-08-16T13:29:55.008Z,100537.56
2018-08-16T13:32:18.951Z,100546.27
2018-08-16T13:34:42.847Z,100533.31
2018-08-16T13:37:06.896Z,100538.78
2018-08-16T13:39:30.835Z,100537.01
2018-08-16T13:41:54.695Z,100533.28
2018-08-16T13:44:18.585Z,100529.13
2018-08-16T13:46:42.536Z,100534.80
2018-08-16T13:49:06.847Z,100524.67
2018-08-16T13:51:30.724Z,100526.55
2018-08-16T13:53:54.608Z,100525.84
2018-08-16T13:56:18.531Z,100521.94
2018-08-16T13:58:42.419Z,100516.31
2018-08-16T14:01:06.332Z,100512.01
2018-08-16T14:03:30.195Z,100506.20
2018-08-16T14:05:54.179Z,100506.54
2018-08-16T14:08:18.079Z,100505.30
2018-08-16T14:10:41.988Z,100494.98
2018-08-16T14:13:05.895Z,100496.08
2018-08-16T14:15:29.792Z,100492.38
2018-08-16T14:17:53.658Z,100493.27
2018-08-16T14:20:17.551Z,100492.20
2018-08-16T14:22:41.621Z,100497.91
2018-08-16T14:25:06.307Z,100485.94
2018-08-16T14:27:30.188Z,100488.06
2018-08-16T14:29:54.046Z,100481.16
2018-08-16T14:32:17.991Z,100488.23
2018-08-16T14:34:41.894Z,100485.86
2018-08-16T14:37:06.293Z,100490.93
2018-08-16T14:39:30.189Z,100488.58
2018-08-16T14:41:54.101Z,100483.17
2018-08-16T14:44:18.193Z,100481.00
2018-08-16T14:46:42.092Z,100485.34
2018-08-16T14:49:06.020Z,100486.78
2018-08-16T14:51:30.006Z,100485.18
2018-08-16T14:53:53.803Z,100482.62
2018-08-16T14:56:17.714Z,100481.73
2018-08-16T14:58:41.641Z,100479.58
2018-08-16T15:01:05.671Z,100480.33
2018-08-16T15:03:29.523Z,100483.58
2018-08-16T15:05:53.411Z,100472.98
2018-08-16T15:08:17.467Z,100477.21
2018-08-16T15:10:41.369Z,100467.91
2018-08-16T15:13:05.384Z,100473.83
2018-08-16T15:15:29.244Z,100472.75
2018-08-16T15:17:53.147Z,100470.56
2018-08-16T15:20:17.120Z,100470.46
2018-08-16T15:22:41.038Z,100472.67
2018-08-16T15:25:05.589Z,100468.77
2018-08-16T15:27:29.517Z,100458.61
2018-08-16T15:29:53.365Z,100464.45
2018-08-16T15:32:17.570Z,100464.16
2018-08-16T15:34:41.381Z,100448.68
2018-08-16T15:37:05.287Z,100454.56
2018-08-16T15:39:29.353Z,100456.39
2018-08-16T15:41:53.202Z,100455.33
2018-08-16T15:44:17.094Z,100446.77
2018-08-16T15:46:40.997Z,100447.21
2018-08-16T15:49:04.873Z,100453.14
2018-08-16T15:51:28.790Z,100446.36
2018-08-16T15:53:52.718Z,100449.59
2018-08-16T15:56:16.562Z,100447.28
2018-08-16T15:58:40.432Z,100447.03
2018-08-16T16:01:04.499Z,100448.66
2018-08-16T16:03:28.352Z,100449.73
2018-08-16T16:05:52.429Z,100439.30
2018-08-16T16:08:16.120Z,100443.72
2018-08-16T16:10:39.967Z,100443.65
2018-08-16T16:13:03.891Z,100439.67
2018-08-16T16:15:27.950Z,100438.06
2018-08-16T16:17:51.870Z,100441.66
2018-08-16T16:20:15.780Z,100432.80
2018-08-16T16:22:39.670Z,100429.28
2018-08-16T16:25:03.665Z,100433.37
2018-08-16T16:27:27.557Z,100426.13
2018-08-16T16:29:51.493Z,100424.09
2018-08-16T16:32:15.437Z,100422.50
2018-08-16T16:34:39.332Z,100417.80
2018-08-16T16:37:03.267Z,100424.69
2018-08-16T16:39:27.188Z,100418.36
2018-08-16T16:41:51.144Z,100420.41
2018-08-16T16:44:15.122Z,100415.71
2018-08-16T16:46:39.065Z,100410.00
2018-08-16T16:49:02.956Z,100402.33
2018-08-16T16:51:26.906Z,100412.02
2018-08-16T16:53:50.760Z,100404.38
2018-08-16T16:56:14.715Z,100413.28
2018-08-16T16:58:38.680Z,100413.39
2018-08-16T17:01:02.725Z,100408.94
2018-08-16T17:03:26.603Z,100407.69
2018-08-16T17:05:50.559Z,100409.23
2018-08-16T17:08:14.455Z,100409.75
2018-08-16T17:10:38.393Z,100415.39
2018-08-16T17:13:02.307Z,100411.20
2018-08-16T17:15:26.233Z,100413.70
2018-08-16T17:17:50.278Z,100418.81
2018-08-16T17:20:14.266Z,100418.42
2018-08-16T17:22:38.214Z,100410.73
2018-08-16T17:25:02.117Z,100409.41
2018-08-16T17:27:26.124Z,100415.50
2018-08-16T17:29:50.103Z,100416.05
2018-08-16T17:32:14.004Z,100413.87
2018-08-16T17:34:37.905Z,100407.72
2018-08-16T17:37:01.826Z,100413.38
2018-08-16T17:39:25.755Z,100415.13
2018-08-16T17:41:49.649Z,100416.57
2018-08-16T17:44:13.525Z,100415.55
2018-08-16T17:46:37.448Z,100416.03
2018-08-16T17:49:01.481Z,100414.26
2018-08-16T17:51:26.322Z,100412.45
2018-08-16T17:53:50.283Z,100412.86
2018-08-16T17:56:14.145Z,100412.81
2018-08-16T17:58:38.052Z,100406.45
2018-08-16T18:01:01.950Z,100412.19
2018-08-16T18:03:25.814Z,100413.34
2018-08-16T18:05:49.779Z,100418.42
2018-08-16T18:08:13.700Z,100410.91
2018-08-16T18:10:37.610Z,100415.42
2018-08-16T18:13:01.535Z,100419.52
2018-08-16T18:15:25.447Z,100416.99
2018-08-16T18:17:49.370Z,100420.61
2018-08-16T18:20:13.407Z,100415.03
2018-08-16T18:22:37.859Z,100413.34
2018-08-16T18:25:01.728Z,100418.88
2018-08-16T18:27:25.632Z,100419.33
2018-08-16T18:29:50.026Z,100418.98
2018-08-16T18:32:13.912Z,100419.02
2018-08-16T18:34:37.827Z,100422.11
2018-08-16T18:37:01.817Z,100420.98
2018-08-16T18:39:25.711Z,100425.20
2018-08-16T18:41:49.686Z,100421.34
2018-08-16T18:44:13.620Z,100423.81
2018-08-16T18:46:37.666Z,100431.85
2018-08-16T18:49:01.565Z,100431.08
2018-08-16T18:51:25.879Z,100435.39
2018-08-16T18:53:50.678Z,100435.97
2018-08-16T18:56:14.606Z,100442.14
2018-08-16T18:58:38.618Z,100437.47
2018-08-16T19:01:02.902Z,100440.41
2018-08-16T19:03:26.824Z,100433.41
2018-08-16T19:05:50.797Z,100430.06
2018-08-16T19:08:14.671Z,100436.59
2018-08-16T19:10:38.594Z,100442.28
2018-08-16T19:13:02.861Z,100436.28
2018-08-16T19:15:26.769Z,100439.12
2018-08-16T19:17:50.716Z,100444.13
2018-08-16T19:20:14.663Z,100441.09
2018-08-16T19:22:38.952Z,100444.62
2018-08-16T19:25:02.838Z,100440.36
2018-08-16T19:27:26.823Z,100442.42
2018-08-16T19:29:50.721Z,100435.96
2018-08-16T19:32:14.794Z,100438.02
2018-08-16T19:34:38.740Z,100429.55
2018-08-16T19:37:02.754Z,100435.13
2018-08-16T19:39:26.658Z,100435.52
2018-08-16T19:41:50.618Z,100434.33
2018-08-16T19:44:14.518Z,100432.51
2018-08-16T19:46:38.420Z,100435.92
2018-08-16T19:49:02.359Z,100434.56
2018-08-16T19:51:26.285Z,100432.09
2018-08-16T19:53:50.191Z,100426.63
2018-08-16T19:56:14.124Z,100423.39
2018-08-16T19:58:39.009Z,100425.48
2018-08-16T20:01:03.026Z,100418.97
2018-08-16T20:03:27.300Z,100429.45
2018-08-16T20:05:51.188Z,100422.09
2018-08-16T20:08:15.052Z,100419.66
2018-08-16T20:10:38.983Z,100420.95
2018-08-16T20:13:02.926Z,100425.08
2018-08-16T20:15:26.810Z,100421.53
2018-08-16T20:17:50.784Z,100417.83
2018-08-16T20:20:14.799Z,100416.98
2018-08-16T20:22:38.669Z,100420.52
2018-08-16T20:25:02.665Z,100418.39
2018-08-16T20:27:26.530Z,100417.66
2018-08-16T20:29:50.486Z,100420.50
2018-08-16T20:32:15.697Z,100413.33
2018-08-16T20:34:39.671Z,100415.81
2018-08-16T20:37:03.942Z,100417.77
2018-08-16T20:39:28.061Z,100423.20
2018-08-16T20:41:51.995Z,100423.23
2018-08-16T20:44:15.800Z,100421.15
2018-08-16T20:46:39.741Z,100426.39
2018-08-16T20:49:03.944Z,100431.02
2018-08-16T20:51:27.944Z,100419.94
2018-08-16T20:53:51.880Z,100431.44
2018-08-16T20:56:17.958Z,100419.62
2018-08-16T20:58:41.813Z,100419.72
2018-08-16T21:01:05.946Z,100430.45
2018-08-16T21:03:29.750Z,100428.41
2018-08-16T21:05:53.619Z,100431.35
2018-08-16T21:08:17.608Z,100432.11
2018-08-16T21:10:41.494Z,100426.72
2018-08-16T21:13:05.425Z,100427.63
2018-08-16T21:15:29.328Z,100426.31
2018-08-16T21:17:53.240Z,100428.19
2018-08-16T21:20:17.197Z,100419.80
2018-08-16T21:22:41.107Z,100425.00
2018-08-16T21:25:05.695Z,100432.73
2018-08-16T21:27:29.656Z,100434.33
2018-08-16T21:29:53.550Z,100431.58
2018-08-16T21:32:17.473Z,100433.06
2018-08-16T21:34:41.412Z,100435.94
2018-08-16T21:37:05.373Z,100434.05
2018-08-16T21:39:29.290Z,100431.08
2018-08-16T21:41:53.164Z,100435.05
2018-08-16T21:44:17.075Z,100432.64
2018-08-16T21:46:40.944Z,100436.17
2018-08-16T21:49:04.897Z,100436.02
2018-08-16T21:51:28.954Z,100437.82
2018-08-16T21:53:52.840Z,100432.30
2018-08-16T21:56:16.745Z,100433.56
2018-08-16T21:58:40.685Z,100431.17
2018-08-16T22:01:05.914Z,100438.31
2018-08-16T22:03:29.801Z,100454.26
2018-08-16T22:06:05.796Z,100456.41
2018-08-16T22:08:41.833Z,100459.74
2018-08-16T22:11:06.248Z,100458.10
2018-08-16T22:13:30.247Z,100456.39
2018-08-16T22:15:54.147Z,100453.64
2018-08-16T22:18:18.082Z,100461.52
2018-08-16T22:20:42.022Z,100457.59
2018-08-16T22:23:06.140Z,100459.80
2018-08-16T22:25:30.050Z,100459.70
2018-08-16T22:27:53.971Z,100462.11
2018-08-16T22:30:18.073Z,100473.87
2018-08-16T22:32:41.977Z,100465.77
2018-08-16T22:35:06.132Z,100474.77
2018-08-16T22:37:30.108Z,100473.21
2018-08-16T22:39:53.980Z,100469.54
2018-08-16T22:42:17.968Z,100471.09
2018-08-16T22:44:41.868Z,100472.75
2018-08-16T22:47:05.917Z,100467.47
2018-08-16T22:49:29.788Z,100465.77
2018-08-16T22:51:53.663Z,100466.95
2018-08-16T22:54:17.584Z,100460.44
2018-08-16T22:56:41.483Z,100443.88
2018-08-16T22:59:05.454Z,100452.88
2018-08-16T23:01:29.392Z,100465.13
2018-08-16T23:03:53.484Z,100457.83
2018-08-16T23:06:17.359Z,100462.44
2018-08-16T23:08:41.307Z,100462.34
2018-08-16T23:11:05.183Z,100456.42
2018-08-16T23:13:29.135Z,100456.33
2018-08-16T23:15:53.017Z,100457.16
2018-08-16T23:18:16.953Z,100454.12
2018-08-16T23:20:40.792Z,100451.38
2018-08-16T23:23:04.676Z,100451.01
2018-08-16T23:25:28.569Z,100446.70
2018-08-16T23:27:52.520Z,100445.86
2018-08-16T23:30:17.113Z,100447.66
2018-08-16T23:32:41.291Z,100444.56
2018-08-16T23:35:05.516Z,100442.80
2018-08-16T23:37:29.442Z,100450.48
2018-08-16T23:39:53.381Z,100445.03
2018-08-16T23:42:17.489Z,100443.42
2018-08-16T23:44:41.404Z,100437.66
2018-08-16T23:47:05.307Z,100449.09
2018-08-16T23:49:29.253Z,100452.54
2018-08-16T23:51:53.197Z,100458.14
2018-08-16T23:54:17.147Z,100442.75
2018-08-16T23:56:41.080Z,100445.12
2018-08-16T23:59:05.012Z,100446.39
